createdAt,value
2017-11-24T00:00:30.585Z,9.19
2017-11-24T00:01:29.606Z,9.29
2017-11-24T00:02:48.119Z,9.18
2017-11-24T00:03:31.893Z,9.22
2017-11-24T00:05:03.259Z,9.21
2017-11-24T00:05:48.268Z,9.24
2017-11-24T00:06:41.752Z,9.34
2017-11-24T00:07:35.267Z,9.26
2017-11-24T00:08:31.969Z,9.31
2017-11-24T00:09:30.449Z,9.34
2017-11-24T00:10:28.949Z,9.40
2017-11-24T00:11:29.463Z,9.39
2017-11-24T00:12:30.200Z,9.33
2017-11-24T00:13:30.290Z,9.37
2017-11-24T00:14:48.162Z,9.39
2017-11-24T00:17:49.683Z,9.39
2017-11-24T00:18:48.424Z,9.40
2017-11-24T00:19:27.394Z,9.45
2017-11-24T00:20:47.978Z,9.48
2017-11-24T00:23:03.198Z,9.49
2017-11-24T00:24:00.347Z,9.44
2017-11-24T00:25:25.749Z,9.47
2017-11-24T00:26:36.471Z,9.51
2017-11-24T00:27:01.410Z,9.44
2017-11-24T00:28:00.818Z,9.47
2017-11-24T00:31:20.783Z,9.52
2017-11-24T00:31:46.465Z,9.47
2017-11-24T00:33:20.714Z,9.47
2017-11-24T00:33:58.300Z,9.48
2017-11-24T00:35:20.037Z,9.49
2017-11-24T00:35:58.587Z,9.49
2017-11-24T00:40:18.687Z,9.52
2017-11-24T00:41:17.141Z,9.52
2017-11-24T00:42:50.304Z,9.51
2017-11-24T00:43:18.211Z,9.54
2017-11-24T00:44:16.714Z,9.48
2017-11-24T00:45:16.545Z,9.55
2017-11-24T00:46:29.469Z,9.59
2017-11-24T00:48:02.617Z,9.62
2017-11-24T00:48:29.404Z,9.63
2017-11-24T00:49:17.310Z,9.62
2017-11-24T00:50:17.309Z,9.62
2017-11-24T00:51:50.573Z,9.64
2017-11-24T00:52:18.083Z,9.49
2017-11-24T00:53:17.311Z,9.62
2017-11-24T00:54:17.375Z,9.62
2017-11-24T00:57:02.555Z,9.62
2017-11-24T00:58:55.138Z,9.70
2017-11-24T00:59:02.615Z,9.69
2017-11-24T01:00:03.886Z,9.70
2017-11-24T01:01:03.259Z,9.66
2017-11-24T01:02:21.484Z,9.72
2017-11-24T01:03:21.761Z,9.76
2017-11-24T01:04:03.043Z,9.72
2017-11-24T01:05:02.629Z,9.69
2017-11-24T01:06:28.055Z,9.76
2017-11-24T01:07:02.662Z,9.76
2017-11-24T01:08:02.623Z,9.74
2017-11-24T01:09:02.130Z,9.85
2017-11-24T01:10:38.674Z,9.88
2017-11-24T01:11:03.029Z,9.87
2017-11-24T01:12:02.324Z,9.81
2017-11-24T01:13:02.426Z,9.82
2017-11-24T01:16:14.237Z,9.91
2017-11-24T01:17:07.642Z,9.90
2017-11-24T01:17:51.455Z,9.81
2017-11-24T01:18:48.314Z,9.95
2017-11-24T01:19:49.752Z,9.94
2017-11-24T01:20:49.090Z,9.91
2017-11-24T01:21:48.245Z,9.85
2017-11-24T01:22:48.216Z,9.94
2017-11-24T01:23:48.695Z,9.95
2017-11-24T01:25:21.534Z,9.94
2017-11-24T01:26:00.912Z,9.95
2017-11-24T01:27:01.010Z,9.87
2017-11-24T01:27:47.880Z,9.95
2017-11-24T01:28:47.865Z,9.97
2017-11-24T01:29:51.252Z,10.02
2017-11-24T01:30:48.103Z,9.95
2017-11-24T01:32:47.521Z,10.05
2017-11-24T01:32:48.394Z,9.97
2017-11-24T01:33:47.964Z,9.97
2017-11-24T01:34:47.954Z,9.91
2017-11-24T01:37:40.635Z,10.03
2017-11-24T01:38:37.297Z,10.03
2017-11-24T01:39:40.317Z,9.97
2017-11-24T01:40:34.412Z,9.94
2017-11-24T01:41:34.234Z,10.06
2017-11-24T01:43:10.780Z,10.03
2017-11-24T01:43:35.751Z,10.05
2017-11-24T01:44:37.402Z,9.97
2017-11-24T01:45:35.645Z,10.07
2017-11-24T01:48:45.273Z,10.07
2017-11-24T01:49:19.849Z,10.10
2017-11-24T01:50:22.759Z,10.07
2017-11-24T01:51:22.881Z,10.05
2017-11-24T01:52:22.820Z,10.10
2017-11-24T01:53:20.125Z,10.15
2017-11-24T01:54:54.548Z,10.10
2017-11-24T01:55:38.853Z,10.13
2017-11-24T01:56:19.631Z,10.18
2017-11-24T01:57:52.987Z,10.09
2017-11-24T01:58:19.561Z,10.15
2017-11-24T01:59:19.822Z,10.17
2017-11-24T02:00:45.082Z,10.27
2017-11-24T02:01:45.175Z,10.17
2017-11-24T02:02:19.675Z,10.07
2017-11-24T02:05:24.824Z,10.12
2017-11-24T02:06:40.781Z,10.12
2017-11-24T02:09:10.891Z,10.17
2017-11-24T02:10:38.173Z,10.12
2017-11-24T02:10:51.473Z,10.17
2017-11-24T02:13:40.798Z,10.15
2017-11-24T02:15:37.137Z,10.12
2017-11-24T02:15:41.374Z,10.20
2017-11-24T02:17:11.977Z,10.12
2017-11-24T02:17:39.574Z,10.15
2017-11-24T02:21:16.887Z,10.07
2017-11-24T02:21:30.256Z,10.02
2017-11-24T02:23:10.184Z,10.13
2017-11-24T02:25:10.843Z,10.05
2017-11-24T02:26:29.668Z,10.05
2017-11-24T02:27:35.962Z,10.00
2017-11-24T02:28:36.120Z,10.05
2017-11-24T02:31:15.370Z,10.18
2017-11-24T02:31:55.947Z,10.17
2017-11-24T02:32:55.928Z,10.10
2017-11-24T02:33:55.926Z,10.18
2017-11-24T02:34:55.892Z,10.10
2017-11-24T02:35:55.872Z,10.13
2017-11-24T02:36:55.856Z,10.17
2017-11-24T02:37:55.833Z,10.05
2017-11-24T02:38:55.820Z,10.18
2017-11-24T02:39:55.797Z,10.20
2017-11-24T02:40:55.788Z,10.18
2017-11-24T02:41:55.759Z,10.23
2017-11-24T02:42:55.739Z,10.18
2017-11-24T02:43:55.719Z,10.20
2017-11-24T02:44:55.699Z,10.24
2017-11-24T02:45:55.682Z,10.24
2017-11-24T02:46:55.680Z,10.20
2017-11-24T02:47:55.645Z,10.30
2017-11-24T02:48:55.626Z,10.33
2017-11-24T02:49:55.605Z,10.27
2017-11-24T02:50:55.585Z,10.31
2017-11-24T02:51:55.571Z,10.42
2017-11-24T02:52:55.552Z,10.36
2017-11-24T02:53:55.532Z,10.38
2017-11-24T02:54:55.514Z,10.36
2017-11-24T02:55:55.493Z,10.31
2017-11-24T02:56:55.479Z,10.42
2017-11-24T02:57:55.454Z,10.34
2017-11-24T02:58:55.436Z,10.39
2017-11-24T02:59:55.423Z,10.36
2017-11-24T03:00:55.403Z,10.36
2017-11-24T03:01:55.381Z,10.31
2017-11-24T03:02:55.364Z,10.24
2017-11-24T03:03:55.352Z,10.33
2017-11-24T03:04:55.323Z,10.34
2017-11-24T03:05:55.305Z,10.31
2017-11-24T03:06:55.297Z,10.42
2017-11-24T03:07:55.268Z,10.33
2017-11-24T03:08:55.251Z,10.38
2017-11-24T03:09:55.240Z,10.34
2017-11-24T03:10:55.216Z,10.36
2017-11-24T03:11:55.191Z,10.41
2017-11-24T03:12:55.179Z,10.36
2017-11-24T03:13:55.169Z,10.39
2017-11-24T03:14:55.140Z,10.36
2017-11-24T03:15:55.121Z,10.28
2017-11-24T03:16:55.103Z,10.28
2017-11-24T03:17:55.086Z,10.21
2017-11-24T03:18:55.070Z,10.27
2017-11-24T03:19:55.046Z,10.27
2017-11-24T03:20:55.025Z,10.12
2017-11-24T03:21:55.010Z,10.23
2017-11-24T03:22:55.007Z,10.18
2017-11-24T03:23:54.969Z,10.07
2017-11-24T03:24:54.978Z,10.09
2017-11-24T03:25:54.930Z,10.02
2017-11-24T03:26:54.980Z,9.97
2017-11-24T03:27:54.893Z,10.05
2017-11-24T03:28:54.927Z,9.97
2017-11-24T03:29:54.859Z,9.91
2017-11-24T03:30:54.839Z,9.91
2017-11-24T03:31:54.818Z,9.91
2017-11-24T03:32:54.806Z,9.85
2017-11-24T03:33:54.782Z,9.85
2017-11-24T03:34:54.759Z,9.87
2017-11-24T03:35:54.742Z,9.80
2017-11-24T03:36:54.733Z,9.77
2017-11-24T03:37:54.708Z,9.82
2017-11-24T03:38:54.787Z,9.76
2017-11-24T03:39:54.669Z,9.76
2017-11-24T03:40:54.649Z,9.74
2017-11-24T03:41:54.630Z,9.77
2017-11-24T03:42:54.692Z,9.82
2017-11-24T03:43:54.596Z,9.70
2017-11-24T03:44:54.571Z,9.69
2017-11-24T03:45:54.556Z,9.69
2017-11-24T03:46:54.535Z,9.72
2017-11-24T03:47:54.514Z,9.69
2017-11-24T03:48:54.569Z,9.63
2017-11-24T03:49:54.481Z,9.62
2017-11-24T03:50:54.459Z,9.59
2017-11-24T03:51:54.438Z,9.59
2017-11-24T03:52:54.529Z,9.62
2017-11-24T03:53:54.404Z,9.58
2017-11-24T03:54:54.436Z,9.62
2017-11-24T03:55:54.363Z,9.59
2017-11-24T03:56:54.346Z,9.63
2017-11-24T03:57:54.335Z,9.59
2017-11-24T03:58:54.321Z,9.59
2017-11-24T03:59:54.288Z,9.56
2017-11-24T04:00:54.275Z,9.51
2017-11-24T04:01:54.276Z,9.49
2017-11-24T04:02:54.288Z,9.48
2017-11-24T04:03:54.214Z,9.49
2017-11-24T04:04:54.240Z,9.56
2017-11-24T04:05:54.176Z,9.56
2017-11-24T04:06:54.158Z,9.56
2017-11-24T04:07:54.137Z,9.55
2017-11-24T04:08:54.128Z,9.56
2017-11-24T04:09:54.103Z,9.67
2017-11-24T04:10:54.081Z,9.64
2017-11-24T04:11:54.062Z,9.62
2017-11-24T04:12:54.044Z,9.59
2017-11-24T04:13:54.026Z,9.63
2017-11-24T04:14:54.122Z,9.59
2017-11-24T04:15:54.000Z,9.76
2017-11-24T04:16:53.971Z,9.73
2017-11-24T04:17:53.953Z,9.76
2017-11-24T04:18:53.947Z,9.74
2017-11-24T04:19:53.927Z,9.85
2017-11-24T04:20:53.902Z,9.81
2017-11-24T04:21:53.875Z,9.84
2017-11-24T04:22:53.861Z,9.82
2017-11-24T04:23:53.841Z,9.74
2017-11-24T04:24:53.846Z,9.67
2017-11-24T04:25:53.801Z,9.80
2017-11-24T04:26:53.781Z,9.73
2017-11-24T04:27:53.768Z,9.74
2017-11-24T04:28:53.764Z,9.72
2017-11-24T04:29:53.726Z,9.66
2017-11-24T04:30:53.813Z,9.67
2017-11-24T04:31:53.696Z,9.66
2017-11-24T04:32:53.676Z,9.52
2017-11-24T04:33:53.652Z,9.58
2017-11-24T04:34:53.631Z,9.59
2017-11-24T04:35:53.611Z,9.58
2017-11-24T04:36:53.592Z,9.62
2017-11-24T04:37:53.594Z,9.54
2017-11-24T04:38:53.553Z,9.52
2017-11-24T04:39:53.579Z,9.48
2017-11-24T04:40:53.518Z,9.49
2017-11-24T04:41:53.497Z,9.51
2017-11-24T04:42:53.476Z,9.51
2017-11-24T04:43:53.466Z,9.51
2017-11-24T04:44:53.448Z,9.47
2017-11-24T04:45:53.422Z,9.45
2017-11-24T04:46:53.402Z,9.45
2017-11-24T04:47:53.387Z,9.40
2017-11-24T04:48:53.364Z,9.44
2017-11-24T04:49:53.346Z,9.30
2017-11-24T04:50:53.325Z,9.37
2017-11-24T04:51:53.307Z,9.37
2017-11-24T04:52:53.285Z,9.37
2017-11-24T04:53:53.269Z,9.40
2017-11-24T04:54:53.247Z,9.33
2017-11-24T04:55:53.233Z,9.33
2017-11-24T04:56:53.215Z,9.27
2017-11-24T04:57:53.187Z,9.29
2017-11-24T04:58:53.169Z,9.27
2017-11-24T04:59:53.158Z,9.24
2017-11-24T05:00:53.129Z,9.21
2017-11-24T05:01:53.112Z,9.31
2017-11-24T05:02:53.094Z,9.26
2017-11-24T05:03:53.074Z,9.24
2017-11-24T05:04:53.054Z,9.26
2017-11-24T05:05:53.043Z,9.31
2017-11-24T05:06:53.013Z,9.26
2017-11-24T05:07:52.993Z,9.22
2017-11-24T05:08:52.974Z,9.12
2017-11-24T05:09:52.953Z,9.12
2017-11-24T05:10:52.942Z,9.11
2017-11-24T05:11:52.916Z,9.16
2017-11-24T05:12:52.901Z,9.22
2017-11-24T05:13:52.874Z,9.16
2017-11-24T05:14:52.855Z,9.12
2017-11-24T05:15:52.843Z,9.16
2017-11-24T05:16:52.815Z,9.21
2017-11-24T05:17:52.794Z,9.11
2017-11-24T05:18:52.777Z,9.15
2017-11-24T05:19:52.758Z,9.18
2017-11-24T05:20:52.742Z,9.24
2017-11-24T05:21:52.718Z,9.15
2017-11-24T05:22:52.697Z,9.24
2017-11-24T05:23:52.692Z,9.09
2017-11-24T05:24:52.658Z,9.18
2017-11-24T05:25:52.649Z,9.19
2017-11-24T05:26:52.623Z,9.16
2017-11-24T05:27:52.601Z,9.16
2017-11-24T05:28:52.604Z,9.24
2017-11-24T05:29:52.560Z,9.24
2017-11-24T05:30:52.540Z,9.16
2017-11-24T05:31:52.522Z,9.24
2017-11-24T05:32:52.499Z,9.34
2017-11-24T05:33:52.492Z,9.30
2017-11-24T05:34:52.463Z,9.30
2017-11-24T05:35:52.442Z,9.39
2017-11-24T05:36:52.423Z,9.45
2017-11-24T05:37:52.406Z,9.47
2017-11-24T05:38:52.382Z,9.58
2017-11-24T05:39:52.370Z,9.56
2017-11-24T05:40:52.345Z,9.54
2017-11-24T05:41:52.329Z,9.56
2017-11-24T05:42:52.309Z,9.63
2017-11-24T05:43:52.289Z,9.58
2017-11-24T05:44:52.270Z,9.58
2017-11-24T05:45:52.249Z,9.55
2017-11-24T05:46:52.236Z,9.54
2017-11-24T05:47:52.226Z,9.52
2017-11-24T05:48:52.191Z,9.54
2017-11-24T05:49:52.184Z,9.51
2017-11-24T05:50:52.153Z,9.51
2017-11-24T05:51:52.142Z,9.45
2017-11-24T05:52:52.123Z,9.49
2017-11-24T05:53:52.102Z,9.58
2017-11-24T05:54:52.079Z,9.51
2017-11-24T05:55:52.057Z,9.49
2017-11-24T05:56:52.036Z,9.48
2017-11-24T05:57:52.017Z,9.42
2017-11-24T05:58:51.995Z,9.40
2017-11-24T05:59:51.980Z,9.42
2017-11-24T06:00:51.958Z,9.39
2017-11-24T06:01:51.937Z,9.40
2017-11-24T06:02:51.928Z,9.40
2017-11-24T06:03:51.909Z,9.39
2017-11-24T06:04:51.886Z,9.37
2017-11-24T06:05:51.866Z,9.42
2017-11-24T06:06:51.846Z,9.33
2017-11-24T06:07:51.830Z,9.33
2017-11-24T06:08:51.805Z,9.30
2017-11-24T06:09:51.787Z,9.33
2017-11-24T06:10:51.765Z,9.31
2017-11-24T06:11:51.754Z,9.37
2017-11-24T06:12:51.727Z,9.31
2017-11-24T06:13:51.709Z,9.29
2017-11-24T06:14:51.696Z,9.34
2017-11-24T06:15:51.668Z,9.21
2017-11-24T06:16:51.653Z,9.29
2017-11-24T06:17:51.629Z,9.30
2017-11-24T06:18:51.613Z,9.30
2017-11-24T06:19:51.592Z,9.24
2017-11-24T06:20:51.579Z,9.31
2017-11-24T06:21:51.557Z,9.24
2017-11-24T06:22:51.535Z,9.26
2017-11-24T06:23:51.513Z,9.37
2017-11-24T06:24:51.505Z,9.27
2017-11-24T06:25:51.480Z,9.29
2017-11-24T06:26:51.462Z,9.30
2017-11-24T06:27:51.434Z,9.30
2017-11-24T06:28:51.417Z,9.31
2017-11-24T06:29:51.398Z,9.27
2017-11-24T06:30:51.377Z,9.39
2017-11-24T06:31:51.374Z,9.39
2017-11-24T06:32:51.342Z,9.31
2017-11-24T06:33:51.321Z,9.31
2017-11-24T06:34:51.306Z,9.40
2017-11-24T06:35:51.333Z,9.34
2017-11-24T06:36:51.261Z,9.30
2017-11-24T06:37:51.276Z,9.37
2017-11-24T06:38:51.221Z,9.34
2017-11-24T06:39:51.202Z,9.31
2017-11-24T06:40:51.184Z,9.33
2017-11-24T06:41:51.229Z,9.29
2017-11-24T06:42:51.142Z,9.31
2017-11-24T06:43:51.126Z,9.30
2017-11-24T06:44:51.111Z,9.18
2017-11-24T06:45:51.129Z,9.21
2017-11-24T06:46:51.072Z,9.12
2017-11-24T06:47:51.065Z,9.18
2017-11-24T06:48:51.029Z,9.09
2017-11-24T06:49:51.009Z,9.15
2017-11-24T06:50:50.988Z,9.09
2017-11-24T06:51:51.020Z,9.16
2017-11-24T06:52:50.953Z,9.16
2017-11-24T06:53:50.931Z,9.09
2017-11-24T06:54:50.913Z,9.11
2017-11-24T06:55:50.890Z,9.05
2017-11-24T06:56:50.871Z,9.08
2017-11-24T06:57:50.900Z,9.05
2017-11-24T06:58:50.833Z,8.93
2017-11-24T06:59:50.813Z,8.95
2017-11-24T07:00:50.799Z,8.96
2017-11-24T07:01:50.880Z,8.90
2017-11-24T07:02:50.751Z,8.87
2017-11-24T07:03:50.732Z,8.84
2017-11-24T07:04:50.720Z,8.74
2017-11-24T07:05:50.701Z,8.69
2017-11-24T07:06:50.672Z,8.60
2017-11-24T07:07:50.753Z,8.63
2017-11-24T07:08:50.653Z,8.66
2017-11-24T07:09:50.611Z,8.66
2017-11-24T07:10:50.590Z,8.61
2017-11-24T07:11:50.587Z,8.69
2017-11-24T07:12:50.551Z,8.68
2017-11-24T07:13:50.609Z,8.68
2017-11-24T07:14:50.509Z,8.60
2017-11-24T07:15:50.490Z,8.63
2017-11-24T07:16:50.470Z,8.64
2017-11-24T07:17:50.465Z,8.71
2017-11-24T07:18:50.430Z,8.82
2017-11-24T07:19:50.411Z,8.92
2017-11-24T07:20:50.390Z,8.93
2017-11-24T07:21:50.525Z,8.87
2017-11-24T07:22:50.353Z,8.95
2017-11-24T07:23:50.701Z,8.97
2017-11-24T07:24:50.312Z,9.02
2017-11-24T07:25:50.298Z,9.03
2017-11-24T07:26:50.269Z,8.97
2017-11-24T07:27:50.250Z,9.02
2017-11-24T07:28:50.231Z,8.92
2017-11-24T07:29:50.209Z,9.12
2017-11-24T07:30:50.189Z,9.08
2017-11-24T07:31:50.169Z,8.96
2017-11-24T07:32:50.148Z,9.09
2017-11-24T07:33:50.145Z,9.03
2017-11-24T07:34:50.109Z,9.03
2017-11-24T07:35:50.088Z,8.95
2017-11-24T07:36:50.072Z,8.95
2017-11-24T07:37:50.068Z,9.09
2017-11-24T07:38:50.033Z,8.97
2017-11-24T07:39:50.015Z,8.93
2017-11-24T07:40:49.996Z,8.77
2017-11-24T07:41:49.970Z,8.74
2017-11-24T07:42:49.952Z,8.75
2017-11-24T07:43:49.932Z,8.69
2017-11-24T07:44:49.911Z,8.68
2017-11-24T07:45:49.894Z,8.71
2017-11-24T07:46:49.868Z,8.84
2017-11-24T07:47:49.850Z,8.81
2017-11-24T07:48:49.836Z,8.97
2017-11-24T07:49:49.810Z,9.03
2017-11-24T07:50:49.797Z,8.99
2017-11-24T07:51:49.771Z,9.08
2017-11-24T07:52:49.764Z,9.05
2017-11-24T07:53:49.730Z,8.92
2017-11-24T07:54:49.716Z,9.02
2017-11-24T07:55:49.700Z,9.09
2017-11-24T07:56:49.671Z,9.00
2017-11-24T07:57:49.652Z,9.13
2017-11-24T07:58:49.632Z,9.08
2017-11-24T07:59:49.611Z,8.99
2017-11-24T08:00:49.600Z,9.03
2017-11-24T08:01:49.575Z,9.02
2017-11-24T08:02:49.558Z,9.03
2017-11-24T08:03:49.534Z,9.08
2017-11-24T08:04:49.530Z,9.00
2017-11-24T08:05:49.492Z,9.08
2017-11-24T08:06:49.478Z,9.08
2017-11-24T08:07:49.452Z,9.13
2017-11-24T08:08:49.437Z,9.15
2017-11-24T08:09:49.417Z,9.03
2017-11-24T08:10:49.396Z,8.97
2017-11-24T08:11:49.380Z,9.00
2017-11-24T08:12:49.360Z,8.93
2017-11-24T08:13:49.345Z,9.08
2017-11-24T08:14:49.321Z,9.21
2017-11-24T08:15:49.298Z,9.19
2017-11-24T08:16:49.279Z,9.19
2017-11-24T08:17:49.259Z,9.13
2017-11-24T08:18:49.245Z,9.13
2017-11-24T08:19:49.218Z,9.15
2017-11-24T08:20:49.201Z,9.12
2017-11-24T08:21:49.182Z,9.12
2017-11-24T08:22:49.176Z,9.26
2017-11-24T08:23:49.144Z,9.15
2017-11-24T08:24:49.124Z,9.18
2017-11-24T08:25:49.110Z,9.05
2017-11-24T08:26:49.084Z,9.08
2017-11-24T08:27:49.066Z,9.03
2017-11-24T08:28:49.048Z,9.09
2017-11-24T08:29:49.027Z,9.12
2017-11-24T08:30:49.017Z,9.19
2017-11-24T08:31:48.992Z,9.27
2017-11-24T08:32:48.971Z,9.24
2017-11-24T08:33:48.952Z,9.22
2017-11-24T08:34:48.944Z,9.19
2017-11-24T08:35:48.912Z,9.24
2017-11-24T08:36:48.897Z,9.12
2017-11-24T08:37:48.875Z,9.03
2017-11-24T08:38:48.853Z,9.11
2017-11-24T08:39:48.855Z,9.11
2017-11-24T08:40:48.823Z,9.05
2017-11-24T08:41:48.800Z,9.09
2017-11-24T08:42:48.776Z,9.08
2017-11-24T08:43:48.755Z,8.93
2017-11-24T08:44:48.742Z,8.93
2017-11-24T08:45:48.742Z,8.99
2017-11-24T08:46:48.698Z,9.02
2017-11-24T08:47:48.679Z,9.03
2017-11-24T08:48:48.664Z,8.97
2017-11-24T08:49:48.644Z,8.99
2017-11-24T08:50:48.622Z,9.08
2017-11-24T08:51:48.604Z,9.00
2017-11-24T08:52:48.582Z,9.03
2017-11-24T08:53:48.563Z,9.03
2017-11-24T08:54:48.544Z,9.21
2017-11-24T08:55:48.525Z,9.36
2017-11-24T08:56:48.541Z,9.49
2017-11-24T08:57:48.490Z,9.55
2017-11-24T08:58:48.500Z,9.69
2017-11-24T08:59:48.450Z,9.76
2017-11-24T09:00:48.431Z,9.84
2017-11-24T09:01:48.423Z,9.92
2017-11-24T09:02:48.393Z,9.99
2017-11-24T09:03:48.380Z,9.92
2017-11-24T09:04:48.364Z,9.94
2017-11-24T09:05:48.339Z,9.92
2017-11-24T09:06:48.319Z,9.80
2017-11-24T09:07:48.299Z,9.81
2017-11-24T09:08:48.298Z,9.81
2017-11-24T09:09:48.270Z,9.84
2017-11-24T09:10:48.268Z,9.80
2017-11-24T09:11:48.228Z,10.00
2017-11-24T09:12:48.218Z,10.03
2017-11-24T09:13:48.197Z,10.06
2017-11-24T09:14:48.171Z,10.07
2017-11-24T09:15:48.160Z,10.09
2017-11-24T09:16:48.134Z,10.13
2017-11-24T09:17:48.129Z,10.15
2017-11-24T09:18:48.108Z,10.18
2017-11-24T09:19:48.095Z,10.00
2017-11-24T09:20:48.064Z,9.91
2017-11-24T09:21:48.039Z,10.05
2017-11-24T09:22:48.025Z,9.97
2017-11-24T09:23:48.010Z,9.90
2017-11-24T09:24:48.094Z,9.94
2017-11-24T09:25:47.969Z,9.77
2017-11-24T09:26:47.951Z,9.84
2017-11-24T09:27:47.937Z,9.72
2017-11-24T09:28:47.926Z,9.80
2017-11-24T09:29:47.897Z,9.84
2017-11-24T09:30:47.981Z,9.74
2017-11-24T09:31:47.859Z,9.76
2017-11-24T09:32:47.844Z,9.58
2017-11-24T09:33:47.834Z,9.58
2017-11-24T09:34:47.811Z,9.69
2017-11-24T09:35:47.792Z,9.76
2017-11-24T09:36:47.768Z,9.81
2017-11-24T09:37:47.750Z,9.81
2017-11-24T09:38:47.736Z,10.05
2017-11-24T09:39:47.715Z,10.09
2017-11-24T09:40:47.725Z,10.10
2017-11-24T09:41:47.676Z,10.13
2017-11-24T09:42:47.658Z,10.07
2017-11-24T09:43:47.658Z,10.17
2017-11-24T09:44:47.650Z,10.15
2017-11-24T09:45:47.613Z,10.02
2017-11-24T09:46:47.584Z,9.92
2017-11-24T09:47:47.576Z,9.76
2017-11-24T09:48:47.550Z,9.81
2017-11-24T09:49:47.532Z,9.87
2017-11-24T09:50:47.524Z,9.66
2017-11-24T09:51:47.501Z,9.58
2017-11-24T09:52:47.477Z,9.58
2017-11-24T09:53:47.462Z,9.62
2017-11-24T09:54:47.543Z,9.59
2017-11-24T09:55:47.423Z,9.56
2017-11-24T09:56:47.457Z,9.54
2017-11-24T09:57:47.386Z,9.55
2017-11-24T09:58:47.385Z,9.62
2017-11-24T09:59:47.353Z,9.64
2017-11-24T10:00:47.432Z,9.58
2017-11-24T10:01:47.311Z,9.59
2017-11-24T10:02:47.292Z,9.58
2017-11-24T10:03:47.273Z,9.64
2017-11-24T10:04:47.363Z,9.67
2017-11-24T10:05:47.242Z,9.80
2017-11-24T10:06:47.228Z,9.99
2017-11-24T10:07:47.205Z,10.07
2017-11-24T10:08:47.182Z,10.25
2017-11-24T10:09:47.166Z,10.18
2017-11-24T10:10:47.212Z,10.27
2017-11-24T10:11:47.131Z,10.15
2017-11-24T10:12:47.112Z,10.07
2017-11-24T10:13:47.095Z,10.02
2017-11-24T10:14:47.080Z,9.90
2017-11-24T10:15:47.072Z,9.92
2017-11-24T10:16:47.137Z,9.92
2017-11-24T10:17:47.021Z,9.92
2017-11-24T10:18:47.004Z,9.85
2017-11-24T10:19:46.989Z,9.82
2017-11-24T10:20:46.975Z,9.87
2017-11-24T10:21:46.951Z,9.82
2017-11-24T10:22:46.934Z,9.77
2017-11-24T10:23:46.923Z,9.73
2017-11-24T10:24:46.898Z,9.62
2017-11-24T10:25:46.887Z,9.59
2017-11-24T10:26:46.894Z,9.58
2017-11-24T10:27:46.851Z,9.54
2017-11-24T10:28:46.828Z,9.59
2017-11-24T10:29:46.814Z,9.55
2017-11-24T10:30:46.799Z,9.64
2017-11-24T10:31:46.792Z,9.58
2017-11-24T10:32:46.762Z,9.52
2017-11-24T10:33:46.736Z,9.54
2017-11-24T10:34:46.720Z,9.58
2017-11-24T10:35:46.702Z,9.52
2017-11-24T10:36:46.690Z,9.52
2017-11-24T10:37:46.668Z,9.49
2017-11-24T10:38:46.651Z,9.49
2017-11-24T10:39:46.631Z,9.47
2017-11-24T10:40:46.636Z,9.66
2017-11-24T10:41:46.598Z,9.64
2017-11-24T10:42:46.583Z,9.82
2017-11-24T10:43:46.563Z,9.69
2017-11-24T10:44:46.540Z,9.82
2017-11-24T10:45:46.538Z,9.73
2017-11-24T10:46:46.592Z,9.81
2017-11-24T10:47:46.485Z,9.74
2017-11-24T10:48:46.486Z,9.73
2017-11-24T10:49:46.460Z,9.84
2017-11-24T10:50:46.441Z,9.76
2017-11-24T10:51:46.428Z,9.69
2017-11-24T10:52:46.533Z,9.69
2017-11-24T10:53:46.382Z,9.74
2017-11-24T10:54:46.372Z,9.81
2017-11-24T10:55:46.342Z,9.62
2017-11-24T10:56:46.333Z,9.69
2017-11-24T10:57:46.314Z,9.63
2017-11-24T10:58:46.286Z,9.76
2017-11-24T10:59:46.270Z,9.95
2017-11-24T11:00:46.253Z,10.10
2017-11-24T11:01:46.237Z,10.18
2017-11-24T11:02:46.366Z,10.34
2017-11-24T11:03:46.197Z,10.25
2017-11-24T11:04:46.188Z,10.23
2017-11-24T11:05:46.164Z,10.17
2017-11-24T11:06:46.155Z,10.15
2017-11-24T11:07:46.126Z,10.05
2017-11-24T11:08:46.109Z,10.24
2017-11-24T11:09:46.091Z,10.30
2017-11-24T11:10:46.075Z,10.30
2017-11-24T11:11:46.059Z,10.39
2017-11-24T11:12:46.047Z,10.31
2017-11-24T11:13:46.020Z,10.48
2017-11-24T11:14:46.021Z,10.55
2017-11-24T11:15:45.991Z,10.64
2017-11-24T11:16:45.984Z,10.72
2017-11-24T11:17:45.949Z,10.86
2017-11-24T11:18:45.966Z,10.94
2017-11-24T11:19:45.913Z,10.94
2017-11-24T11:20:45.899Z,10.89
2017-11-24T11:21:45.879Z,11.05
2017-11-24T11:22:45.931Z,10.84
2017-11-24T11:23:45.844Z,10.84
2017-11-24T11:24:45.836Z,10.82
2017-11-24T11:25:45.825Z,10.58
2017-11-24T11:26:45.871Z,10.55
2017-11-24T11:27:45.778Z,10.61
2017-11-24T11:28:45.850Z,10.58
2017-11-24T11:29:45.749Z,10.51
2017-11-24T11:30:45.728Z,10.46
2017-11-24T11:31:45.708Z,10.58
2017-11-24T11:32:45.792Z,10.48
2017-11-24T11:33:45.684Z,10.46
2017-11-24T11:34:45.669Z,10.42
2017-11-24T11:35:45.643Z,10.33
2017-11-24T11:36:45.621Z,10.31
2017-11-24T11:37:45.612Z,10.21
2017-11-24T11:38:45.607Z,10.15
2017-11-24T11:39:45.570Z,10.05
2017-11-24T11:40:45.558Z,9.85
2017-11-24T11:41:45.546Z,9.67
2017-11-24T11:42:45.541Z,9.59
2017-11-24T11:43:45.507Z,9.47
2017-11-24T11:44:45.494Z,9.44
2017-11-24T11:45:45.474Z,9.42
2017-11-24T11:46:45.452Z,9.37
2017-11-24T11:47:45.433Z,9.39
2017-11-24T11:48:45.413Z,9.49
2017-11-24T11:49:45.397Z,9.63
2017-11-24T11:50:45.378Z,9.66
2017-11-24T11:51:45.365Z,9.76
2017-11-24T11:52:45.367Z,9.73
2017-11-24T11:53:45.331Z,9.72
2017-11-24T11:54:45.312Z,9.85
2017-11-24T11:55:45.294Z,10.03
2017-11-24T11:56:45.272Z,10.00
2017-11-24T11:57:45.255Z,10.00
2017-11-24T11:58:45.294Z,10.05
2017-11-24T11:59:45.218Z,10.09
2017-11-24T12:00:45.199Z,9.91
2017-11-24T12:01:45.193Z,9.81
2017-11-24T12:02:45.163Z,9.76
2017-11-24T12:03:45.154Z,9.67
2017-11-24T12:04:45.143Z,9.67
2017-11-24T12:05:45.108Z,9.62
2017-11-24T12:06:45.094Z,9.62
2017-11-24T12:07:45.082Z,9.62
2017-11-24T12:08:45.056Z,9.58
2017-11-24T12:09:45.044Z,9.51
2017-11-24T12:10:45.030Z,9.55
2017-11-24T12:11:45.013Z,9.62
2017-11-24T12:12:44.988Z,9.56
2017-11-24T12:13:44.968Z,9.63
2017-11-24T12:14:44.953Z,9.58
2017-11-24T12:15:44.930Z,9.62
2017-11-24T12:16:44.912Z,9.55
2017-11-24T12:17:44.898Z,9.56
2017-11-24T12:18:44.876Z,9.59
2017-11-24T12:19:44.860Z,9.62
2017-11-24T12:20:44.842Z,9.62
2017-11-24T12:21:44.831Z,9.62
2017-11-24T12:22:44.806Z,9.56
2017-11-24T12:23:44.800Z,9.62
2017-11-24T12:24:44.777Z,9.58
2017-11-24T12:25:44.761Z,9.56
2017-11-24T12:26:44.753Z,9.59
2017-11-24T12:27:44.715Z,9.54
2017-11-24T12:28:44.705Z,9.55
2017-11-24T12:29:44.682Z,9.59
2017-11-24T12:30:44.660Z,9.55
2017-11-24T12:31:44.647Z,9.52
2017-11-24T12:32:44.626Z,9.51
2017-11-24T12:33:44.606Z,9.42
2017-11-24T12:34:44.626Z,9.42
2017-11-24T12:35:44.609Z,9.36
2017-11-24T12:36:44.568Z,9.40
2017-11-24T12:37:44.535Z,9.37
2017-11-24T12:38:44.518Z,9.39
2017-11-24T12:39:44.497Z,9.42
2017-11-24T12:40:44.482Z,9.36
2017-11-24T12:41:44.470Z,9.30
2017-11-24T12:42:44.460Z,9.27
2017-11-24T12:43:44.423Z,9.29
2017-11-24T12:44:44.407Z,9.36
2017-11-24T12:45:44.390Z,9.24
2017-11-24T12:46:44.385Z,9.21
2017-11-24T12:47:44.362Z,9.22
2017-11-24T12:48:44.342Z,9.33
2017-11-24T12:49:44.317Z,9.31
2017-11-24T12:50:44.311Z,9.21
2017-11-24T12:51:44.279Z,9.16
2017-11-24T12:52:44.265Z,9.21
2017-11-24T12:53:44.255Z,9.15
2017-11-24T12:54:44.227Z,9.16
2017-11-24T12:55:44.205Z,9.09
2017-11-24T12:56:44.192Z,9.22
2017-11-24T12:57:44.172Z,9.15
2017-11-24T12:58:44.148Z,9.13
2017-11-24T12:59:44.148Z,9.19
2017-11-24T13:00:44.122Z,9.16
2017-11-24T13:01:44.101Z,9.22
2017-11-24T13:02:44.090Z,9.24
2017-11-24T13:03:44.056Z,9.19
2017-11-24T13:04:44.040Z,9.13
2017-11-24T13:05:44.026Z,9.13
2017-11-24T13:06:44.036Z,9.09
2017-11-24T13:07:43.989Z,9.15
2017-11-24T13:08:43.963Z,9.12
2017-11-24T13:09:43.947Z,9.12
2017-11-24T13:10:43.927Z,9.16
2017-11-24T13:11:43.914Z,9.12
2017-11-24T13:12:43.903Z,9.15
2017-11-24T13:13:43.878Z,9.18
2017-11-24T13:14:43.874Z,9.05
2017-11-24T13:15:43.834Z,9.12
2017-11-24T13:16:43.816Z,8.99
2017-11-24T13:17:43.797Z,8.99
2017-11-24T13:18:43.784Z,9.12
2017-11-24T13:19:43.771Z,9.16
2017-11-24T13:20:43.742Z,9.21
2017-11-24T13:21:43.724Z,9.27
2017-11-24T13:22:43.704Z,9.24
2017-11-24T13:23:43.690Z,9.21
2017-11-24T13:24:43.675Z,9.26
2017-11-24T13:25:43.654Z,9.39
2017-11-24T13:26:43.639Z,9.33
2017-11-24T13:27:43.614Z,9.36
2017-11-24T13:28:43.595Z,9.30
2017-11-24T13:29:43.582Z,9.49
2017-11-24T13:30:43.568Z,9.51
2017-11-24T13:31:43.542Z,9.48
2017-11-24T13:32:43.520Z,9.45
2017-11-24T13:33:43.506Z,9.39
2017-11-24T13:34:43.482Z,9.49
2017-11-24T13:35:43.475Z,9.52
2017-11-24T13:36:43.451Z,9.44
2017-11-24T13:37:43.438Z,9.42
2017-11-24T13:38:43.411Z,9.45